Terminal Aerodrome Forecast
Issued by NWS

Home | Current Version | Previous Version | Text Only | Print | Product List | Glossary On
Versions: 1 2 3 4 5 6 7 8 9 10 11 12 13 14 15 16 17 18 19
000
FTUS44 KCRP 011128
TAFALI
TAF
KALI 011128Z 0112/0212 VRB03KT 3SM BR SCT002 BKN060
      TEMPO 0112/0113 1SM BR
     FM011300 VRB06KT P6SM SCT150
     FM011900 08010KT P6SM FEW040 FEW250
     FM021000 23002KT 4SM BR SKC=

USA.gov is the U.S. government's official web portal to all federal, state and local government web resources and services.